createdAt,value
2023-03-29T00:00:32.879Z,6.34
2023-03-29T00:03:02.558Z,6.38
2023-03-29T00:05:34.002Z,6.39
2023-03-29T00:08:04.021Z,6.42
2023-03-29T00:10:33.529Z,6.32
2023-03-29T00:13:01.445Z,6.23
2023-03-29T00:15:29.141Z,6.20
2023-03-29T00:17:57.298Z,6.14
2023-03-29T00:20:25.037Z,6.18
2023-03-29T00:22:54.082Z,6.00
2023-03-29T00:25:22.854Z,6.14
2023-03-29T00:27:50.615Z,6.27
2023-03-29T00:30:18.446Z,6.30
2023-03-29T00:32:46.801Z,6.34
2023-03-29T00:35:15.072Z,6.32
2023-03-29T00:37:42.748Z,6.43
2023-03-29T00:40:15.440Z,6.44
2023-03-29T00:42:45.685Z,6.15
2023-03-29T00:45:21.206Z,5.99
2023-03-29T00:47:51.393Z,5.97
2023-03-29T00:50:25.531Z,6.01
2023-03-29T00:52:57.707Z,6.09
2023-03-29T00:55:30.595Z,6.12
2023-03-29T01:00:33.978Z,6.12
2023-03-29T01:03:07.218Z,6.12
2023-03-29T01:05:38.143Z,6.27
2023-03-29T01:08:11.085Z,6.28
2023-03-29T01:10:42.564Z,6.13
2023-03-29T01:13:14.451Z,6.19
2023-03-29T01:15:46.051Z,6.14
2023-03-29T01:18:14.001Z,6.39
2023-03-29T01:21:02.918Z,6.30
2023-03-29T01:23:47.556Z,6.08
2023-03-29T01:26:27.102Z,6.47
2023-03-29T01:29:01.912Z,6.57
2023-03-29T01:31:32.879Z,6.70
2023-03-29T01:34:06.895Z,6.86
2023-03-29T01:36:40.561Z,7.00
2023-03-29T01:39:08.760Z,6.62
2023-03-29T01:41:45.111Z,6.86
2023-03-29T01:44:19.594Z,6.80
2023-03-29T01:46:48.913Z,6.79
2023-03-29T01:49:25.352Z,6.66
2023-03-29T01:51:58.217Z,6.81
2023-03-29T01:54:31.515Z,6.88
2023-03-29T01:57:01.098Z,6.85
2023-03-29T01:59:34.723Z,7.02
2023-03-29T02:02:06.613Z,7.01
2023-03-29T02:04:38.433Z,6.73
2023-03-29T02:07:09.800Z,7.13
2023-03-29T02:09:39.819Z,7.18
2023-03-29T02:12:09.949Z,7.00
2023-03-29T02:14:39.573Z,7.10
2023-03-29T02:17:18.191Z,6.73
2023-03-29T02:19:50.138Z,7.10
2023-03-29T02:22:24.192Z,6.88
2023-03-29T02:24:56.633Z,6.87
2023-03-29T02:27:24.425Z,7.01
2023-03-29T02:29:53.967Z,6.95
2023-03-29T02:32:26.370Z,6.93
2023-03-29T02:34:58.934Z,6.80
2023-03-29T02:37:31.264Z,6.66
2023-03-29T02:40:00.084Z,6.53
2023-03-29T02:42:29.554Z,6.52
2023-03-29T02:45:01.170Z,6.61
2023-03-29T02:47:33.421Z,6.58
2023-03-29T02:50:01.595Z,6.42
2023-03-29T02:52:35.004Z,6.06
2023-03-29T02:55:06.257Z,6.07
2023-03-29T02:57:35.584Z,5.85
2023-03-29T03:00:06.890Z,5.67
2023-03-29T03:02:35.504Z,5.57
2023-03-29T03:05:03.678Z,5.51
2023-03-29T03:07:31.444Z,5.34
2023-03-29T03:09:59.243Z,5.14
2023-03-29T03:12:27.174Z,5.03
2023-03-29T03:14:54.878Z,4.95
2023-03-29T03:17:24.570Z,4.74
2023-03-29T03:19:53.161Z,4.66
2023-03-29T03:22:20.921Z,4.63
2023-03-29T03:24:49.280Z,4.66
2023-03-29T03:27:18.005Z,4.56
2023-03-29T03:29:45.657Z,4.43
2023-03-29T03:32:13.478Z,4.43
2023-03-29T03:34:42.430Z,4.34
2023-03-29T03:37:11.916Z,4.17
2023-03-29T03:39:39.608Z,4.21
2023-03-29T03:42:08.436Z,4.30
2023-03-29T03:44:36.567Z,4.05
2023-03-29T03:47:05.670Z,4.01
2023-03-29T03:49:33.535Z,4.07
2023-03-29T03:52:02.693Z,3.97
2023-03-29T03:54:30.344Z,4.10
2023-03-29T03:56:58.277Z,3.96
2023-03-29T03:59:26.566Z,3.89
2023-03-29T04:01:54.609Z,3.78
2023-03-29T04:04:23.574Z,3.82
2023-03-29T04:06:51.671Z,3.83
2023-03-29T04:09:22.562Z,3.79
2023-03-29T04:11:52.987Z,3.75
2023-03-29T04:14:21.628Z,3.63
2023-03-29T04:16:49.268Z,3.60
2023-03-29T04:19:17.265Z,3.58
2023-03-29T04:21:46.044Z,3.59
2023-03-29T04:24:13.856Z,3.62
2023-03-29T04:26:43.030Z,3.51
2023-03-29T04:29:10.952Z,3.48
2023-03-29T04:31:39.067Z,3.43
2023-03-29T04:34:07.063Z,3.34
2023-03-29T04:36:34.808Z,3.32
2023-03-29T04:39:04.792Z,3.33
2023-03-29T04:41:32.645Z,3.33
2023-03-29T04:44:02.546Z,3.33
2023-03-29T04:46:30.878Z,3.23
2023-03-29T04:48:58.762Z,3.22
2023-03-29T04:51:27.512Z,3.22
2023-03-29T04:53:55.192Z,3.22
2023-03-29T04:56:23.074Z,3.15
2023-03-29T04:58:51.049Z,3.16
2023-03-29T05:01:19.995Z,3.19
2023-03-29T05:03:47.663Z,3.21
2023-03-29T05:06:15.339Z,3.17
2023-03-29T05:08:43.366Z,3.17
2023-03-29T05:11:13.547Z,3.16
2023-03-29T05:13:41.733Z,3.16
2023-03-29T05:16:11.108Z,3.12
2023-03-29T05:18:40.329Z,3.10
2023-03-29T05:21:09.394Z,3.12
2023-03-29T05:23:37.443Z,3.02
2023-03-29T05:26:07.975Z,2.98
2023-03-29T05:28:35.659Z,2.94
2023-03-29T05:31:06.023Z,2.92
2023-03-29T05:33:34.584Z,3.00
2023-03-29T05:36:05.340Z,3.06
2023-03-29T05:38:33.822Z,2.95
2023-03-29T05:41:01.925Z,2.84
2023-03-29T05:43:29.945Z,2.88
2023-03-29T05:45:57.701Z,2.96
2023-03-29T05:48:26.936Z,3.00
2023-03-29T05:50:56.224Z,3.20
2023-03-29T05:53:27.118Z,3.31
2023-03-29T05:55:55.242Z,3.34
2023-03-29T05:58:23.418Z,3.38
2023-03-29T06:00:51.427Z,3.28
2023-03-29T06:03:23.671Z,3.33
2023-03-29T06:05:57.996Z,3.49
2023-03-29T06:08:27.586Z,3.55
2023-03-29T06:11:03.050Z,3.57
2023-03-29T06:13:33.541Z,3.48
2023-03-29T06:16:01.769Z,3.50
2023-03-29T06:18:30.009Z,3.53
2023-03-29T06:20:57.660Z,3.72
2023-03-29T06:23:27.015Z,3.79
2023-03-29T06:25:55.236Z,3.95
2023-03-29T06:28:24.032Z,4.02
2023-03-29T06:30:54.021Z,4.11
2023-03-29T06:33:21.670Z,4.16
2023-03-29T06:35:50.623Z,4.25
2023-03-29T06:38:19.522Z,4.27
2023-03-29T06:40:48.529Z,4.40
2023-03-29T06:43:16.289Z,4.39
2023-03-29T06:45:44.662Z,4.41
2023-03-29T06:48:13.166Z,4.51
2023-03-29T06:50:40.864Z,4.64
2023-03-29T06:53:08.661Z,4.68
2023-03-29T06:55:36.334Z,4.82
2023-03-29T06:58:05.417Z,4.84
2023-03-29T07:00:35.864Z,4.92
2023-03-29T07:03:08.178Z,5.07
2023-03-29T07:05:40.598Z,5.19
2023-03-29T07:08:14.055Z,5.21
2023-03-29T07:10:44.422Z,5.34
2023-03-29T07:13:14.016Z,5.54
2023-03-29T07:15:42.676Z,5.65
2023-03-29T07:18:11.094Z,5.78
2023-03-29T07:20:40.446Z,5.86
2023-03-29T07:23:09.456Z,5.96
2023-03-29T07:25:38.232Z,6.08
2023-03-29T07:28:06.704Z,6.19
2023-03-29T07:30:36.983Z,6.47
2023-03-29T07:33:04.865Z,6.64
2023-03-29T07:35:32.854Z,6.68
2023-03-29T07:38:00.671Z,6.94
2023-03-29T07:40:28.318Z,7.13
2023-03-29T07:42:57.462Z,7.24
2023-03-29T07:45:28.747Z,7.48
2023-03-29T07:47:59.038Z,7.70
2023-03-29T07:50:27.504Z,7.93
2023-03-29T07:52:56.764Z,8.12
2023-03-29T07:55:24.543Z,8.30
2023-03-29T07:57:52.126Z,8.54
2023-03-29T08:00:21.054Z,8.77
2023-03-29T08:02:50.756Z,9.06
2023-03-29T08:05:37.957Z,9.16
2023-03-29T08:08:09.490Z,9.41
2023-03-29T08:10:39.308Z,9.55
2023-03-29T08:13:09.350Z,9.78
2023-03-29T08:15:39.008Z,9.74
2023-03-29T08:18:06.884Z,10.03
2023-03-29T08:20:38.540Z,10.40
2023-03-29T08:23:06.670Z,10.66
2023-03-29T08:25:35.107Z,10.65
2023-03-29T08:28:02.715Z,10.89
2023-03-29T08:30:30.443Z,11.25
2023-03-29T08:32:58.072Z,11.48
2023-03-29T08:35:25.746Z,11.64
2023-03-29T08:37:54.746Z,11.54
2023-03-29T08:40:26.305Z,11.55
2023-03-29T08:43:06.331Z,11.79
2023-03-29T08:45:45.364Z,11.64
2023-03-29T08:48:23.022Z,12.03
2023-03-29T08:50:53.896Z,12.28
2023-03-29T08:53:27.954Z,12.33
2023-03-29T08:55:58.455Z,12.12
2023-03-29T08:58:30.899Z,12.53
2023-03-29T09:01:00.794Z,13.25
2023-03-29T09:03:34.270Z,13.25
2023-03-29T09:06:06.018Z,13.19
2023-03-29T09:08:40.205Z,13.08
2023-03-29T09:11:28.951Z,13.51
2023-03-29T09:14:13.823Z,13.94
2023-03-29T09:16:52.576Z,14.01
2023-03-29T09:19:27.744Z,14.27
2023-03-29T09:22:05.223Z,14.19
2023-03-29T09:24:48.287Z,14.72
2023-03-29T09:27:19.587Z,14.53
2023-03-29T09:30:10.686Z,14.87
2023-03-29T09:32:45.691Z,14.42
2023-03-29T09:35:19.092Z,14.08
2023-03-29T09:37:49.975Z,13.58
2023-03-29T09:40:23.697Z,13.39
2023-03-29T09:42:55.400Z,14.19
2023-03-29T09:45:23.856Z,14.73
2023-03-29T09:47:56.243Z,14.95
2023-03-29T09:50:31.934Z,15.45
2023-03-29T09:53:00.058Z,15.64
2023-03-29T09:55:32.254Z,15.72
2023-03-29T09:58:03.039Z,15.60
2023-03-29T10:00:30.963Z,15.93
2023-03-29T10:03:00.273Z,15.60
2023-03-29T10:05:33.236Z,15.41
2023-03-29T10:08:02.244Z,15.79
2023-03-29T10:10:34.519Z,15.29
2023-03-29T10:13:06.825Z,15.21
2023-03-29T10:15:34.586Z,15.24
2023-03-29T10:18:06.742Z,15.30
2023-03-29T10:20:36.760Z,15.18
2023-03-29T10:23:10.341Z,15.80
2023-03-29T10:25:42.824Z,15.67
2023-03-29T10:28:16.153Z,15.95
2023-03-29T10:30:46.324Z,16.11
2023-03-29T10:33:18.703Z,15.46
2023-03-29T10:35:48.689Z,15.98
2023-03-29T10:38:19.532Z,16.31
2023-03-29T10:40:51.846Z,16.24
2023-03-29T10:43:24.559Z,16.12
2023-03-29T10:45:54.680Z,16.22
2023-03-29T10:48:26.380Z,16.22
2023-03-29T10:50:54.070Z,16.23
2023-03-29T10:53:26.139Z,15.90
2023-03-29T10:56:07.760Z,15.94
2023-03-29T10:58:56.669Z,16.25
2023-03-29T11:01:35.790Z,16.22
2023-03-29T11:04:14.693Z,17.00
2023-03-29T11:06:48.633Z,17.15
2023-03-29T11:09:26.682Z,16.42
2023-03-29T11:12:15.046Z,16.05
2023-03-29T11:14:53.853Z,16.87
2023-03-29T11:17:36.494Z,17.29
2023-03-29T11:20:17.460Z,17.86
2023-03-29T11:22:53.322Z,17.73
2023-03-29T11:25:33.406Z,17.19
2023-03-29T11:28:09.924Z,17.20
2023-03-29T11:30:44.593Z,17.21
2023-03-29T11:33:26.996Z,17.46
2023-03-29T11:36:01.026Z,17.23
2023-03-29T11:38:37.103Z,17.25
2023-03-29T11:41:12.883Z,16.67
2023-03-29T11:43:45.669Z,16.66
2023-03-29T11:46:17.878Z,16.28
2023-03-29T11:48:51.785Z,16.48
2023-03-29T11:51:24.759Z,16.46
2023-03-29T11:53:59.877Z,16.85
2023-03-29T11:56:33.478Z,17.14
2023-03-29T11:59:11.535Z,17.51
2023-03-29T12:01:46.391Z,17.46
2023-03-29T12:04:22.835Z,17.70
2023-03-29T12:06:58.424Z,17.68
2023-03-29T12:09:34.142Z,17.81
2023-03-29T12:12:09.940Z,18.03
2023-03-29T12:14:56.987Z,18.04
2023-03-29T12:17:31.721Z,18.44
2023-03-29T12:20:11.989Z,18.85
2023-03-29T12:22:40.064Z,19.40
2023-03-29T12:25:17.822Z,20.10
2023-03-29T12:27:59.189Z,20.34
2023-03-29T12:31:03.775Z,20.39
2023-03-29T12:33:56.654Z,20.31
2023-03-29T12:37:01.934Z,19.55
2023-03-29T12:39:31.303Z,19.69
2023-03-29T12:42:08.439Z,18.99
2023-03-29T12:44:37.012Z,18.91
2023-03-29T12:47:06.258Z,19.40
2023-03-29T12:49:36.988Z,19.06
2023-03-29T12:52:09.381Z,19.23
2023-03-29T12:54:37.133Z,18.95
2023-03-29T12:57:21.866Z,18.80
2023-03-29T12:59:52.236Z,19.24
2023-03-29T13:02:37.443Z,19.12
2023-03-29T13:05:26.425Z,19.36
2023-03-29T13:07:55.977Z,19.18
2023-03-29T13:10:39.087Z,19.02
2023-03-29T13:13:18.775Z,18.79
2023-03-29T13:15:46.941Z,18.52
2023-03-29T13:18:36.728Z,18.27
2023-03-29T13:21:17.608Z,18.24
2023-03-29T13:23:57.702Z,18.27
2023-03-29T13:26:41.243Z,18.50
2023-03-29T13:29:38.084Z,18.69
2023-03-29T13:32:19.951Z,19.04
2023-03-29T13:34:57.543Z,19.81
2023-03-29T13:37:36.675Z,19.49
2023-03-29T13:40:19.685Z,19.82
2023-03-29T13:42:58.907Z,19.90
2023-03-29T13:45:28.725Z,19.76
2023-03-29T13:48:05.843Z,19.63
2023-03-29T13:50:38.299Z,20.11
2023-03-29T13:53:13.686Z,19.61
2023-03-29T13:55:48.480Z,19.39
2023-03-29T13:58:27.355Z,19.26
2023-03-29T14:01:01.583Z,19.78
2023-03-29T14:03:33.557Z,18.82
2023-03-29T14:06:04.873Z,19.06
2023-03-29T14:08:37.560Z,19.10
2023-03-29T14:11:09.270Z,18.97
2023-03-29T14:13:36.981Z,19.30
2023-03-29T14:16:09.093Z,18.68
2023-03-29T14:18:40.334Z,18.41
2023-03-29T14:21:12.420Z,18.95
2023-03-29T14:23:42.038Z,18.44
2023-03-29T14:26:15.439Z,18.29
2023-03-29T14:28:47.224Z,18.28
2023-03-29T14:31:20.111Z,18.24
2023-03-29T14:33:53.509Z,18.09
2023-03-29T14:36:23.242Z,18.10
2023-03-29T14:38:54.349Z,18.01
2023-03-29T14:41:24.318Z,17.59
2023-03-29T14:43:52.314Z,17.57
2023-03-29T14:46:22.495Z,17.54
2023-03-29T14:48:50.676Z,17.81
2023-03-29T14:51:19.096Z,17.54
2023-03-29T14:53:49.432Z,17.53
2023-03-29T14:56:24.025Z,17.91
2023-03-29T14:58:55.304Z,17.55
2023-03-29T15:01:25.739Z,17.49
2023-03-29T15:03:56.217Z,16.91
2023-03-29T15:06:25.691Z,17.03
2023-03-29T15:09:04.377Z,16.97
2023-03-29T15:11:34.550Z,16.84
2023-03-29T15:14:04.830Z,16.84
2023-03-29T15:16:33.583Z,16.92
2023-03-29T15:19:02.860Z,17.14
2023-03-29T15:21:33.651Z,17.08
2023-03-29T15:24:05.068Z,16.93
2023-03-29T15:26:36.613Z,17.12
2023-03-29T15:29:08.553Z,17.17
2023-03-29T15:31:38.475Z,17.15
2023-03-29T15:34:09.465Z,17.34
2023-03-29T15:36:42.283Z,17.62
2023-03-29T15:39:14.217Z,18.01
2023-03-29T15:41:42.254Z,17.78
2023-03-29T15:44:10.740Z,17.91
2023-03-29T15:46:38.656Z,17.63
2023-03-29T15:49:06.381Z,17.47
2023-03-29T15:51:33.971Z,17.36
2023-03-29T15:54:01.649Z,17.30
2023-03-29T15:56:31.961Z,17.30
2023-03-29T15:58:59.597Z,17.16
2023-03-29T16:01:34.777Z,17.44
2023-03-29T16:04:03.268Z,17.44
2023-03-29T16:06:31.419Z,17.25
2023-03-29T16:08:59.060Z,17.29
2023-03-29T16:11:27.047Z,17.35
2023-03-29T16:13:56.649Z,17.54
2023-03-29T16:16:24.389Z,17.64
2023-03-29T16:18:52.411Z,17.42
2023-03-29T16:21:22.766Z,17.33
2023-03-29T16:23:51.398Z,17.52
2023-03-29T16:26:19.347Z,17.55
2023-03-29T16:28:47.051Z,17.65
2023-03-29T16:31:16.395Z,17.53
2023-03-29T16:33:44.489Z,17.33
2023-03-29T16:36:12.495Z,16.95
2023-03-29T16:38:40.610Z,17.10
2023-03-29T16:41:08.583Z,16.88
2023-03-29T16:43:38.694Z,16.93
2023-03-29T16:46:08.983Z,16.94
2023-03-29T16:48:38.557Z,16.86
2023-03-29T16:51:07.341Z,16.92
2023-03-29T16:53:35.664Z,16.67
2023-03-29T16:56:03.784Z,16.67
2023-03-29T16:58:31.796Z,16.76
2023-03-29T17:00:59.489Z,16.77
2023-03-29T17:03:27.663Z,16.79
2023-03-29T17:05:58.023Z,16.84
2023-03-29T17:08:25.908Z,16.73
2023-03-29T17:10:55.522Z,16.71
2023-03-29T17:13:24.146Z,16.52
2023-03-29T17:15:52.365Z,16.52
2023-03-29T17:18:20.331Z,16.29
2023-03-29T17:20:48.277Z,15.91
2023-03-29T17:23:17.536Z,15.92
2023-03-29T17:25:45.213Z,15.62
2023-03-29T17:28:12.856Z,15.80
2023-03-29T17:30:41.252Z,15.64
2023-03-29T17:33:09.161Z,15.61
2023-03-29T17:35:36.937Z,15.50
2023-03-29T17:38:04.621Z,15.16
2023-03-29T17:40:33.573Z,15.15
2023-03-29T17:43:01.348Z,15.04
2023-03-29T17:45:29.225Z,14.88
2023-03-29T17:47:57.114Z,15.19
2023-03-29T17:50:26.294Z,15.31
2023-03-29T17:52:53.950Z,15.37
2023-03-29T17:55:21.721Z,15.24
2023-03-29T17:57:51.630Z,15.18
2023-03-29T18:00:20.029Z,15.20
2023-03-29T18:02:47.898Z,14.93
2023-03-29T18:05:15.769Z,14.80
2023-03-29T18:07:43.541Z,14.77
2023-03-29T18:10:11.889Z,14.68
2023-03-29T18:12:39.716Z,14.53
2023-03-29T18:15:10.090Z,14.52
2023-03-29T18:17:37.883Z,14.56
2023-03-29T18:20:11.731Z,14.63
2023-03-29T18:22:41.376Z,14.58
2023-03-29T18:25:10.128Z,14.35
2023-03-29T18:27:38.602Z,14.49
2023-03-29T18:30:08.689Z,14.35
2023-03-29T18:32:38.071Z,14.54
2023-03-29T18:35:06.750Z,14.56
2023-03-29T18:37:34.501Z,14.23
2023-03-29T18:40:02.170Z,13.98
2023-03-29T18:42:29.859Z,14.26
2023-03-29T18:44:57.730Z,14.39
2023-03-29T18:47:25.734Z,14.30
2023-03-29T18:49:54.893Z,14.29
2023-03-29T18:52:23.401Z,13.99
2023-03-29T18:54:51.443Z,14.21
2023-03-29T18:57:19.297Z,14.35
2023-03-29T18:59:47.112Z,14.39
2023-03-29T19:02:15.581Z,14.32
2023-03-29T19:04:43.450Z,14.18
2023-03-29T19:07:12.780Z,14.09
2023-03-29T19:09:41.594Z,14.10
2023-03-29T19:12:09.533Z,14.12
2023-03-29T19:14:37.403Z,14.19
2023-03-29T19:17:05.362Z,13.97
2023-03-29T19:19:33.245Z,13.83
2023-03-29T19:22:01.308Z,13.99
2023-03-29T19:24:30.724Z,13.68
2023-03-29T19:26:58.477Z,13.97
2023-03-29T19:29:26.765Z,14.01
2023-03-29T19:31:54.658Z,14.01
2023-03-29T19:34:23.922Z,13.84
2023-03-29T19:36:53.567Z,13.67
2023-03-29T19:39:22.100Z,13.65
2023-03-29T19:41:51.296Z,13.09
2023-03-29T19:44:20.061Z,13.63
2023-03-29T19:46:47.837Z,13.62
2023-03-29T19:49:15.713Z,13.41
2023-03-29T19:51:44.293Z,12.97
2023-03-29T19:54:13.887Z,13.18
2023-03-29T19:56:42.931Z,13.45
2023-03-29T19:59:14.677Z,13.66
2023-03-29T20:01:44.035Z,13.78
2023-03-29T20:04:12.020Z,13.49
2023-03-29T20:06:39.798Z,13.99
2023-03-29T20:09:07.594Z,13.91
2023-03-29T20:11:35.598Z,13.51
2023-03-29T20:14:03.309Z,13.50
2023-03-29T20:16:34.311Z,13.49
2023-03-29T20:19:02.596Z,13.40
2023-03-29T20:21:30.220Z,13.47
2023-03-29T20:23:57.958Z,13.29
2023-03-29T20:26:25.790Z,13.46
2023-03-29T20:28:53.451Z,13.54
2023-03-29T20:31:21.173Z,13.44
2023-03-29T20:33:50.286Z,13.41
2023-03-29T20:36:18.468Z,13.25
2023-03-29T20:38:46.415Z,13.19
2023-03-29T20:41:14.044Z,13.26
2023-03-29T20:43:41.698Z,13.05
2023-03-29T20:46:14.887Z,13.25
2023-03-29T20:48:45.942Z,13.41
2023-03-29T20:51:15.075Z,13.42
2023-03-29T20:53:43.725Z,13.31
2023-03-29T20:56:13.195Z,13.14
2023-03-29T20:58:41.935Z,12.93
2023-03-29T21:01:10.210Z,12.93
2023-03-29T21:03:38.360Z,12.70
2023-03-29T21:06:06.336Z,12.63
2023-03-29T21:08:35.405Z,12.54
2023-03-29T21:11:03.953Z,12.57
2023-03-29T21:13:35.754Z,12.51
2023-03-29T21:16:05.021Z,12.56
2023-03-29T21:18:32.750Z,12.62
2023-03-29T21:21:00.601Z,12.46
2023-03-29T21:23:28.241Z,12.60
2023-03-29T21:25:57.210Z,12.48
2023-03-29T21:28:25.054Z,12.43
2023-03-29T21:30:52.848Z,12.38
2023-03-29T21:33:21.028Z,12.38
2023-03-29T21:35:48.714Z,12.29
2023-03-29T21:38:16.572Z,12.43
2023-03-29T21:40:44.325Z,12.49
2023-03-29T21:43:13.320Z,12.45
2023-03-29T21:45:41.238Z,12.35
2023-03-29T21:48:08.979Z,12.41
2023-03-29T21:50:37.211Z,12.35
2023-03-29T21:53:06.756Z,12.42
2023-03-29T21:55:36.081Z,12.45
2023-03-29T21:58:04.094Z,12.23
2023-03-29T22:00:33.748Z,12.21
2023-03-29T22:03:01.774Z,12.45
2023-03-29T22:05:29.601Z,12.19
2023-03-29T22:07:58.633Z,12.23
2023-03-29T22:10:27.337Z,12.36
2023-03-29T22:12:55.144Z,12.36
2023-03-29T22:15:22.782Z,12.59
2023-03-29T22:17:53.429Z,12.71
2023-03-29T22:20:21.275Z,12.67
2023-03-29T22:22:50.843Z,12.82
2023-03-29T22:25:19.515Z,13.25
2023-03-29T22:27:48.687Z,13.82
2023-03-29T22:30:18.033Z,14.24
2023-03-29T22:32:45.941Z,14.31
2023-03-29T22:35:15.081Z,15.09
2023-03-29T22:37:43.940Z,15.01
2023-03-29T22:40:13.395Z,15.38
2023-03-29T22:42:41.224Z,15.88
2023-03-29T22:45:09.953Z,16.15
2023-03-29T22:47:37.636Z,16.14
2023-03-29T22:50:06.192Z,16.32
2023-03-29T22:52:35.311Z,16.63
2023-03-29T22:55:03.053Z,16.66
2023-03-29T22:57:30.966Z,16.78
2023-03-29T22:59:58.627Z,16.79
2023-03-29T23:02:26.433Z,16.97
2023-03-29T23:04:54.209Z,17.00
2023-03-29T23:07:21.893Z,16.86
2023-03-29T23:09:51.047Z,16.89
2023-03-29T23:12:18.641Z,16.88
2023-03-29T23:14:46.994Z,17.02
2023-03-29T23:17:19.177Z,17.13
2023-03-29T23:19:47.200Z,17.09
2023-03-29T23:22:15.331Z,16.83
2023-03-29T23:24:43.462Z,16.58
2023-03-29T23:27:12.604Z,16.46
2023-03-29T23:29:40.365Z,16.34
2023-03-29T23:32:08.204Z,16.26
2023-03-29T23:34:35.792Z,16.68
2023-03-29T23:37:03.378Z,16.76
2023-03-29T23:39:31.025Z,16.83
2023-03-29T23:41:58.668Z,16.89
2023-03-29T23:44:27.703Z,16.88
2023-03-29T23:46:55.424Z,17.05
2023-03-29T23:49:24.039Z,16.96
2023-03-29T23:51:51.789Z,16.94
2023-03-29T23:54:19.411Z,17.04
2023-03-29T23:56:47.093Z,16.92
2023-03-29T23:59:14.705Z,16.91
